Time;durP1;ratioP1;P1;durP2;ratioP2;P2;SDS_P1;SDS_P2;PMS_P1;PMS_P2;Temp;Humidity;BMP_temperature;BMP_pressure;BME280_temperature;BME280_humidity;BME280_pressure;Samples;Min_cycle;Max_cycle;Signal;HPM_P1;HPM_P2
2021/12/31 00:00:39;;;;;;;339.05;247.65;;;;;;;25.01;43.84;101607.09;5023324;28;20070;-43
2021/12/31 00:03:07;;;;;;;333.17;236.52;;;;;;;24.96;43.94;101611.38;5022218;28;20033;-43
2021/12/31 00:05:36;;;;;;;327.25;245.05;;;;;;;25.00;43.63;101600.06;5023643;28;20751;-44
2021/12/31 00:08:05;;;;;;;341.77;249.30;;;;;;;24.97;44.04;101602.66;5023654;28;20033;-43
2021/12/31 00:10:34;;;;;;;335.75;247.77;;;;;;;25.03;43.74;101605.38;5023668;28;20429;-43
2021/12/31 00:13:02;;;;;;;329.42;248.40;;;;;;;25.00;43.79;101593.94;5023624;28;20029;-43
2021/12/31 00:15:31;;;;;;;337.58;246.63;;;;;;;24.98;43.71;101591.31;5023575;28;20048;-43
2021/12/31 00:17:59;;;;;;;333.83;250.27;;;;;;;25.06;43.62;101607.19;5022034;28;20163;-43
2021/12/31 00:20:28;;;;;;;323.73;249.55;;;;;;;25.00;43.77;101593.94;5022132;28;20029;-43
2021/12/31 00:25:28;;;;;;;354.73;258.15;;;;;;;24.96;43.81;101587.75;5023147;28;20685;-43
2021/12/31 00:27:57;;;;;;;344.25;254.65;;;;;;;24.90;44.16;101584.16;5023190;28;20562;-43
2021/12/31 00:30:26;;;;;;;342.02;253.98;;;;;;;24.96;43.61;101576.38;5023191;28;20037;-43
2021/12/31 00:32:54;;;;;;;345.60;253.88;;;;;;;24.98;43.56;101593.94;5025964;28;20432;-43
2021/12/31 00:35:24;;;;;;;353.77;259.65;;;;;;;24.97;43.93;101579.03;5007819;28;20060;-43
2021/12/31 00:37:52;;;;;;;354.73;264.63;;;;;;;24.96;44.15;101573.75;5007413;28;20033;-43
2021/12/31 00:40:21;;;;;;;343.20;260.95;;;;;;;24.96;44.05;101574.63;5005801;28;20030;-43
2021/12/31 00:42:49;;;;;;;344.92;258.58;;;;;;;24.94;43.96;101578.06;5006911;28;20026;-44
2021/12/31 00:45:19;;;;;;;349.92;261.25;;;;;;;24.88;43.94;101585.00;5007228;28;20397;-43
2021/12/31 00:47:48;;;;;;;348.50;259.10;;;;;;;24.94;43.78;101578.97;5005903;28;20029;-44
2021/12/31 00:50:17;;;;;;;354.83;265.33;;;;;;;24.90;43.62;101590.25;5019891;28;20475;-43
2021/12/31 00:52:46;;;;;;;366.17;264.55;;;;;;;24.89;43.91;101585.88;5027073;28;20478;-43
2021/12/31 00:55:14;;;;;;;353.30;262.45;;;;;;;24.85;44.03;101586.66;5026589;28;20459;-43
2021/12/31 00:57:44;;;;;;;351.25;263.58;;;;;;;24.91;44.12;101585.88;5026849;28;20029;-43
2021/12/31 01:00:15;;;;;;;358.35;268.33;;;;;;;24.93;43.67;101592.94;5026765;28;20103;-43
2021/12/31 01:02:43;;;;;;;364.55;267.52;;;;;;;24.90;44.05;101578.91;5026739;28;20087;-43
2021/12/31 01:05:13;;;;;;;362.30;269.17;;;;;;;24.83;43.94;101583.13;5026657;28;20037;-43
2021/12/31 01:07:42;;;;;;;364.15;268.00;;;;;;;24.86;44.14;101584.06;5025047;28;20033;-52
2021/12/31 01:10:12;;;;;;;361.65;271.60;;;;;;;24.86;44.08;101585.81;5026552;28;20033;-43
2021/12/31 01:12:41;;;;;;;369.55;274.77;;;;;;;24.81;44.43;101587.47;5026544;28;20025;-43
2021/12/31 01:15:18;;;;;;;368.95;271.45;;;;;;;24.87;44.13;101590.19;5026211;28;20140;-43
2021/12/31 01:18:15;;;;;;;369.67;270.67;;;;;;;24.94;43.89;101592.09;5025612;28;20057;-43
2021/12/31 01:20:34;;;;;;;363.65;272.98;;;;;;;24.86;44.25;101598.91;5025859;28;20040;-43
2021/12/31 01:23:02;;;;;;;368.77;275.25;;;;;;;24.91;44.04;101594.66;5026187;28;20029;-45
2021/12/31 01:25:30;;;;;;;369.38;271.88;;;;;;;24.91;44.04;101593.75;5026073;28;20450;-43
2021/12/31 01:27:58;;;;;;;375.20;273.80;;;;;;;24.85;44.17;101594.53;5026043;28;20021;-43
2021/12/31 01:30:27;;;;;;;358.83;265.40;;;;;;;24.85;44.04;101605.03;5026013;28;20037;-43
2021/12/31 01:32:55;;;;;;;374.63;275.98;;;;;;;24.84;44.08;101584.88;5025553;28;20030;-49
2021/12/31 01:35:24;;;;;;;360.98;271.60;;;;;;;24.85;43.97;101603.31;5026280;28;20053;-43
2021/12/31 01:37:52;;;;;;;365.98;274.15;;;;;;;24.87;43.93;101598.06;5026228;28;20072;-43
2021/12/31 01:40:21;;;;;;;369.05;272.15;;;;;;;24.82;44.03;101597.13;5020834;28;20996;-43
2021/12/31 01:42:50;;;;;;;358.00;270.40;;;;;;;24.84;44.29;101590.13;5005536;28;20133;-42
2021/12/31 01:45:20;;;;;;;365.30;272.92;;;;;;;24.83;44.03;101588.34;5005905;28;20034;-42
2021/12/31 01:48:10;;;;;;;370.65;276.20;;;;;;;24.85;44.15;101597.16;5006257;28;20033;-42
2021/12/31 01:50:37;;;;;;;368.25;280.15;;;;;;;24.82;44.26;101592.75;5005593;28;20372;-43
2021/12/31 01:53:05;;;;;;;371.23;276.33;;;;;;;24.84;44.35;101591.03;5006067;28;20064;-47
2021/12/31 01:55:34;;;;;;;364.70;274.42;;;;;;;24.86;44.11;101583.19;5006157;28;20041;-42
2021/12/31 01:58:03;;;;;;;368.88;274.83;;;;;;;24.81;44.25;101582.22;5006152;28;20030;-43
2021/12/31 02:00:32;;;;;;;364.50;277.38;;;;;;;24.82;44.32;101584.00;5005703;28;20084;-43
2021/12/31 02:03:00;;;;;;;376.75;278.20;;;;;;;24.72;44.18;101585.56;5005782;28;20053;-43
2021/12/31 02:05:28;;;;;;;363.42;269.45;;;;;;;24.84;44.33;101591.03;5004547;28;20353;-42
2021/12/31 02:07:57;;;;;;;379.55;278.25;;;;;;;24.81;44.03;101597.97;5005579;28;20029;-43
2021/12/31 02:10:26;;;;;;;371.13;278.48;;;;;;;24.83;44.18;101604.09;5005841;28;20558;-43
2021/12/31 02:12:55;;;;;;;379.67;278.35;;;;;;;24.77;44.27;101611.88;5005881;28;20475;-43
2021/12/31 02:15:25;;;;;;;378.20;278.48;;;;;;;24.80;44.46;101617.19;5005669;28;20054;-43
2021/12/31 02:17:53;;;;;;;376.02;279.48;;;;;;;24.79;44.16;101620.66;5005688;28;20041;-43
2021/12/31 02:20:22;;;;;;;371.58;278.48;;;;;;;24.84;44.00;101616.38;5005739;28;20132;-43
2021/12/31 02:23:04;;;;;;;368.13;282.20;;;;;;;24.82;44.36;101632.09;5005468;28;20048;-45
2021/12/31 02:25:35;;;;;;;363.05;273.40;;;;;;;24.83;44.29;101630.34;5005398;28;20041;-42
2021/12/31 02:28:03;;;;;;;370.23;272.92;;;;;;;24.79;44.30;101621.53;5005564;28;20030;-42
2021/12/31 02:30:32;;;;;;;367.85;275.08;;;;;;;24.78;44.02;101621.53;5003972;28;20038;-42
2021/12/31 02:33:03;;;;;;;368.02;273.75;;;;;;;24.80;43.99;101620.69;5005508;28;20049;-43
2021/12/31 02:35:33;;;;;;;367.05;271.70;;;;;;;24.79;44.14;101605.78;5008291;28;20429;-42
2021/12/31 02:38:02;;;;;;;360.40;275.13;;;;;;;24.78;44.27;101606.66;5025025;28;20033;-42
2021/12/31 02:40:31;;;;;;;368.60;274.60;;;;;;;24.76;43.96;101608.34;5024776;28;20036;-42
2021/12/31 02:42:59;;;;;;;368.45;273.40;;;;;;;24.83;44.05;101596.22;5024277;28;20033;-42
2021/12/31 02:45:31;;;;;;;378.85;281.52;;;;;;;24.78;44.13;101605.78;5024669;28;20273;-42
2021/12/31 02:48:02;;;;;;;373.23;276.58;;;;;;;24.76;44.18;101620.59;5024733;28;20022;-42
2021/12/31 02:50:33;;;;;;;362.85;275.55;;;;;;;24.79;44.27;101618.03;5024887;28;20040;-43
2021/12/31 02:53:06;;;;;;;353.35;269.42;;;;;;;24.78;44.10;101621.53;5024955;28;20037;-43
2021/12/31 02:55:37;;;;;;;371.58;279.50;;;;;;;24.80;44.30;101620.69;5023934;28;20045;-43
2021/12/31 02:58:06;;;;;;;367.15;279.40;;;;;;;24.77;44.02;101623.25;5024416;28;20041;-42
2021/12/31 03:00:37;;;;;;;364.92;277.13;;;;;;;24.80;44.32;101614.56;5024638;28;20124;-42
2021/12/31 03:03:08;;;;;;;380.95;282.77;;;;;;;24.73;44.42;101608.31;5023877;28;20107;-42
2021/12/31 03:05:37;;;;;;;373.20;277.13;;;;;;;24.76;44.18;101610.09;5023009;28;20033;-44
2021/12/31 03:08:10;;;;;;;369.15;282.13;;;;;;;24.77;44.08;101590.88;5022850;28;20483;-43
2021/12/31 03:10:39;;;;;;;374.45;275.67;;;;;;;24.72;44.46;101596.91;5022810;28;20033;-43
2021/12/31 03:13:09;;;;;;;383.88;279.83;;;;;;;24.74;44.23;101620.53;5024298;28;20033;-43
2021/12/31 03:15:38;;;;;;;365.40;269.48;;;;;;;24.71;44.29;101629.25;5024276;28;20137;-43
2021/12/31 03:18:08;;;;;;;366.25;274.63;;;;;;;24.73;44.46;101631.94;5024142;28;20040;-44
2021/12/31 03:20:37;;;;;;;366.33;272.63;;;;;;;24.72;44.42;101635.41;5023892;28;20037;-43
2021/12/31 03:23:06;;;;;;;365.25;271.80;;;;;;;24.71;44.53;101644.13;5024096;28;20033;-42
2021/12/31 03:25:35;;;;;;;360.15;266.52;;;;;;;24.76;44.15;101645.09;5022797;28;20025;-42
2021/12/31 03:28:04;;;;;;;361.10;267.58;;;;;;;24.71;44.34;101636.25;5022410;28;20061;-43
2021/12/31 03:30:33;;;;;;;359.80;271.60;;;;;;;24.67;44.54;101635.25;5024057;28;20056;-43
2021/12/31 03:33:02;;;;;;;360.38;272.85;;;;;;;24.73;44.46;101630.19;5023935;28;20041;-45
2021/12/31 03:35:31;;;;;;;362.27;272.02;;;;;;;24.70;44.62;101617.00;5023791;28;20029;-42
2021/12/31 03:37:59;;;;;;;368.80;276.15;;;;;;;24.72;44.51;101622.28;5023952;28;20032;-42
2021/12/31 03:40:27;;;;;;;367.95;275.38;;;;;;;24.74;44.12;101615.31;5023396;28;20128;-43
2021/12/31 03:42:56;;;;;;;368.98;274.20;;;;;;;24.75;44.27;101596.09;5023618;28;20041;-43
2021/12/31 03:45:25;;;;;;;374.10;280.73;;;;;;;24.69;44.25;101594.19;5023432;28;20031;-42
2021/12/31 03:47:54;;;;;;;369.00;276.45;;;;;;;24.72;44.38;101612.66;5021655;28;20029;-43
2021/12/31 03:50:23;;;;;;;369.30;276.20;;;;;;;24.67;44.67;101613.38;5023802;28;20029;-43
2021/12/31 03:52:51;;;;;;;378.70;284.33;;;;;;;24.66;44.64;101611.63;5023765;28;20056;-50
2021/12/31 03:55:21;;;;;;;372.35;278.13;;;;;;;24.71;44.28;101612.66;5023723;28;20467;-43
2021/12/31 03:57:49;;;;;;;371.95;276.48;;;;;;;24.70;44.30;101621.38;5021817;28;20057;-42
2021/12/31 04:00:18;;;;;;;380.20;282.65;;;;;;;24.66;44.32;101615.13;5023421;28;20500;-43
2021/12/31 04:02:47;;;;;;;370.08;279.10;;;;;;;24.67;44.48;101629.13;5023406;28;20067;-43
2021/12/31 04:05:16;;;;;;;364.58;274.50;;;;;;;24.66;44.57;101622.97;5022397;28;20037;-42
2021/12/31 04:07:45;;;;;;;365.23;273.90;;;;;;;24.69;44.66;101625.69;5027768;28;20033;-44
2021/12/31 04:10:14;;;;;;;371.02;275.20;;;;;;;24.63;44.66;101628.19;5027872;28;20034;-42
2021/12/31 04:12:42;;;;;;;371.00;277.33;;;;;;;24.67;44.76;101651.00;5027674;28;20697;-42
2021/12/31 04:15:11;;;;;;;351.92;271.75;;;;;;;24.69;44.62;101627.44;5027625;28;20137;-43
2021/12/31 04:17:40;;;;;;;366.02;276.10;;;;;;;24.63;44.38;101625.56;5027062;28;20034;-49
2021/12/31 04:20:17;;;;;;;378.38;275.90;;;;;;;24.66;44.38;101612.50;5027153;28;20437;-43
2021/12/31 04:22:53;;;;;;;364.48;273.85;;;;;;;24.68;44.31;101637.03;5026329;28;20530;-42
2021/12/31 04:25:22;;;;;;;363.80;272.83;;;;;;;24.65;44.66;101631.75;5027356;28;20064;-43
2021/12/31 04:27:51;;;;;;;375.50;275.85;;;;;;;24.63;44.56;101641.31;5027204;28;20029;-43
2021/12/31 04:30:20;;;;;;;386.92;287.75;;;;;;;24.62;44.51;101633.38;5027209;28;20055;-48
2021/12/31 04:32:49;;;;;;;371.75;281.20;;;;;;;24.74;44.33;101636.28;5027065;28;20029;-54
2021/12/31 04:35:18;;;;;;;380.13;282.77;;;;;;;24.71;44.18;101636.25;5027105;28;20543;-49
2021/12/31 04:37:47;;;;;;;376.58;278.65;;;;;;;24.66;44.43;101633.47;5017256;28;20042;-43
2021/12/31 04:40:16;;;;;;;371.85;279.58;;;;;;;24.75;44.32;101637.19;5007772;28;20034;-50
2021/12/31 04:42:46;;;;;;;375.50;276.63;;;;;;;24.70;44.64;101651.09;5007445;28;20033;-43
2021/12/31 04:45:14;;;;;;;362.75;277.25;;;;;;;24.67;44.52;101640.50;5006317;28;20473;-42
2021/12/31 04:47:43;;;;;;;371.95;277.58;;;;;;;24.65;44.74;101629.13;5007246;28;20030;-43
2021/12/31 04:50:12;;;;;;;373.10;275.77;;;;;;;24.70;44.19;101622.22;5007126;28;20069;-43
2021/12/31 04:52:41;;;;;;;374.98;273.90;;;;;;;24.64;44.77;101615.94;5006810;28;20032;-42
2021/12/31 04:55:11;;;;;;;369.27;275.50;;;;;;;24.62;44.53;101620.28;5007059;28;20034;-43
2021/12/31 04:57:42;;;;;;;373.77;278.02;;;;;;;24.63;44.81;101620.31;5005853;28;20106;-48
2021/12/31 05:00:13;;;;;;;375.55;276.60;;;;;;;24.66;44.44;101625.59;5005745;28;20113;-43
2021/12/31 05:02:41;;;;;;;363.80;271.75;;;;;;;24.66;44.47;101643.09;5006678;28;20098;-42
2021/12/31 05:05:09;;;;;;;363.67;272.88;;;;;;;24.60;44.46;101638.63;5006999;28;20025;-44
2021/12/31 05:07:38;;;;;;;378.33;282.02;;;;;;;24.63;44.81;101643.03;5006747;28;20116;-43
2021/12/31 05:10:07;;;;;;;367.98;272.73;;;;;;;24.64;44.75;101640.47;5006974;28;20059;-44
2021/12/31 05:12:38;;;;;;;360.52;270.73;;;;;;;24.62;44.54;101630.78;5007022;28;20034;-45
2021/12/31 05:15:09;;;;;;;363.88;273.63;;;;;;;24.64;44.49;101639.56;5006746;28;20052;-43
2021/12/31 05:17:38;;;;;;;376.63;279.33;;;;;;;24.65;44.45;101647.47;5006073;28;20059;-47
2021/12/31 05:20:07;;;;;;;375.77;277.75;;;;;;;24.62;44.38;101646.50;5007034;28;20037;-43
2021/12/31 05:22:36;;;;;;;393.00;284.67;;;;;;;24.64;44.80;101650.94;5006801;28;20038;-52
2021/12/31 05:25:04;;;;;;;378.60;279.45;;;;;;;24.64;44.60;101648.34;5006636;28;20048;-43
2021/12/31 05:27:33;;;;;;;365.10;273.23;;;;;;;24.65;44.42;101642.22;5006431;28;20049;-43
2021/12/31 05:30:02;;;;;;;373.05;280.90;;;;;;;24.61;44.59;101648.25;5004787;28;20030;-47
2021/12/31 05:32:30;;;;;;;369.73;276.88;;;;;;;24.63;44.45;101658.78;5006070;28;20296;-43
2021/12/31 05:34:59;;;;;;;371.02;276.55;;;;;;;24.63;44.44;101664.03;5006580;28;20108;-43
2021/12/31 05:37:27;;;;;;;379.40;280.85;;;;;;;24.63;44.83;101671.88;5005176;28;20036;-43
2021/12/31 05:39:56;;;;;;;372.55;277.42;;;;;;;24.61;44.72;101657.84;5006526;28;20034;-44
2021/12/31 05:42:25;;;;;;;371.52;273.90;;;;;;;24.58;44.62;101663.94;5006289;28;20037;-43
2021/12/31 05:44:53;;;;;;;365.85;277.27;;;;;;;24.61;44.77;101673.59;5006486;28;20047;-43
2021/12/31 05:47:22;;;;;;;368.13;275.63;;;;;;;24.62;44.72;101672.75;5006063;28;20475;-43
2021/12/31 05:49:50;;;;;;;365.45;273.90;;;;;;;24.62;44.82;101668.41;5006129;28;20030;-43
2021/12/31 05:52:19;;;;;;;362.08;272.05;;;;;;;24.60;44.71;101659.59;5005885;28;20034;-43
2021/12/31 05:54:48;;;;;;;380.55;281.67;;;;;;;24.62;44.72;101663.16;5006408;28;20044;-42
2021/12/31 05:57:16;;;;;;;375.38;277.52;;;;;;;24.59;44.78;101657.84;5006013;28;20474;-44
2021/12/31 05:59:45;;;;;;;382.20;281.88;;;;;;;24.62;44.76;101651.75;5004700;28;20038;-43
2021/12/31 06:02:14;;;;;;;367.95;276.10;;;;;;;24.58;44.46;101663.94;5004127;28;20414;-44
2021/12/31 06:04:42;;;;;;;372.85;274.63;;;;;;;24.60;44.62;101682.31;5005831;28;20475;-44
2021/12/31 06:07:11;;;;;;;358.98;270.85;;;;;;;24.64;44.55;101665.78;5005403;28;20034;-44
2021/12/31 06:09:39;;;;;;;358.00;272.13;;;;;;;24.63;44.71;101664.91;5005412;28;20037;-44
2021/12/31 06:12:08;;;;;;;380.98;280.40;;;;;;;24.60;44.47;101677.97;5005686;28;20841;-43
2021/12/31 06:14:37;;;;;;;384.95;276.27;;;;;;;24.60;44.49;101656.06;5005059;28;20061;-43
2021/12/31 06:17:07;;;;;;;369.75;276.95;;;;;;;24.64;44.34;101663.16;5003714;28;20498;-44
2021/12/31 06:19:37;;;;;;;362.67;273.35;;;;;;;24.61;44.72;101674.50;5005460;28;20531;-51
2021/12/31 06:22:06;;;;;;;377.90;279.42;;;;;;;24.62;44.44;101678.88;5004136;28;20061;-44
2021/12/31 06:24:34;;;;;;;366.25;272.00;;;;;;;24.64;44.68;101677.19;5005603;28;20072;-44
2021/12/31 06:27:02;;;;;;;353.23;269.02;;;;;;;24.62;44.65;101683.22;5005340;28;20018;-51
2021/12/31 06:29:31;;;;;;;356.70;269.48;;;;;;;24.65;44.40;101678.06;5004302;28;20136;-48
2021/12/31 06:32:00;;;;;;;366.13;267.60;;;;;;;24.64;44.56;101679.81;5005110;28;20434;-44
2021/12/31 06:34:27;;;;;;;376.10;276.13;;;;;;;24.58;44.77;101683.16;5003725;28;20048;-44
2021/12/31 06:36:56;;;;;;;368.35;274.75;;;;;;;24.71;44.51;101678.22;5005555;28;20125;-49
2021/12/31 06:39:26;;;;;;;367.40;271.05;;;;;;;24.78;44.53;101685.38;5005113;28;20440;-50
2021/12/31 06:41:54;;;;;;;368.65;268.67;;;;;;;24.76;44.33;101688.81;5004886;28;20034;-43
2021/12/31 06:44:23;;;;;;;364.17;269.73;;;;;;;24.79;44.52;101686.28;5004824;28;20045;-43
2021/12/31 06:46:51;;;;;;;360.17;270.25;;;;;;;24.76;44.16;101689.69;5019336;28;20030;-43
2021/12/31 06:49:19;;;;;;;362.27;265.92;;;;;;;24.71;44.26;101694.84;5024793;28;20036;-44
2021/12/31 06:51:48;;;;;;;361.95;272.98;;;;;;;24.65;44.54;101702.56;5024733;28;20043;-45
2021/12/31 06:54:16;;;;;;;362.75;269.45;;;;;;;24.70;44.54;101707.94;5024603;28;20099;-44
2021/12/31 06:56:45;;;;;;;361.48;267.42;;;;;;;24.65;44.71;101710.44;5024513;28;20034;-46
2021/12/31 06:59:13;;;;;;;364.52;266.75;;;;;;;24.63;44.71;101714.78;5023044;28;20040;-49
2021/12/31 07:01:41;;;;;;;349.13;264.17;;;;;;;24.59;44.76;101720.78;5023179;28;20418;-42
2021/12/31 07:04:09;;;;;;;350.45;263.90;;;;;;;24.67;44.47;101727.06;5022955;28;20493;-43
2021/12/31 07:06:37;;;;;;;360.73;266.42;;;;;;;24.65;44.42;101725.28;5023035;28;20029;-55
2021/12/31 07:09:05;;;;;;;352.75;257.55;;;;;;;24.67;44.46;101721.81;5024377;28;20125;-44
2021/12/31 07:11:34;;;;;;;355.75;265.45;;;;;;;24.66;44.42;101716.56;5023830;28;20105;-43
2021/12/31 07:14:02;;;;;;;342.02;256.33;;;;;;;24.67;44.41;101723.59;5024063;28;20040;-44
2021/12/31 07:16:30;;;;;;;354.52;264.45;;;;;;;24.62;44.54;101725.22;5024360;28;20029;-47
2021/12/31 07:18:59;;;;;;;358.05;261.15;;;;;;;24.64;44.40;101734.91;5022867;28;20060;-44
2021/12/31 07:21:26;;;;;;;348.50;256.27;;;;;;;24.67;44.41;101739.31;5023926;28;20033;-44
2021/12/31 07:23:53;;;;;;;343.50;256.13;;;;;;;24.63;44.81;101741.00;5023699;28;20036;-44
2021/12/31 07:26:23;;;;;;;343.58;258.35;;;;;;;24.63;44.82;101740.09;5024128;28;20041;-53
2021/12/31 07:28:51;;;;;;;351.20;265.63;;;;;;;24.60;45.05;101743.56;5023763;28;20048;-47
2021/12/31 07:31:20;;;;;;;348.65;257.80;;;;;;;24.67;44.55;101753.31;5022414;28;20389;-43
2021/12/31 07:33:48;;;;;;;331.88;245.57;;;;;;;24.68;44.86;101749.84;5023805;28;20920;-44
2021/12/31 07:36:17;;;;;;;354.10;259.83;;;;;;;24.60;44.84;101756.66;5023837;28;20029;-49
2021/12/31 07:38:55;;;;;;;350.42;265.15;;;;;;;24.65;44.91;101752.41;5024062;28;20490;-44
2021/12/31 07:41:23;;;;;;;354.15;261.17;;;;;;;24.65;44.48;101752.41;5023818;28;20068;-53
2021/12/31 07:43:52;;;;;;;351.05;260.27;;;;;;;24.67;44.90;101765.56;5006619;28;20037;-45
2021/12/31 07:46:20;;;;;;;352.33;258.75;;;;;;;24.69;44.59;101769.09;5004176;28;20029;-44
2021/12/31 07:48:49;;;;;;;354.98;263.23;;;;;;;24.67;45.05;101774.31;5011841;28;20033;-51
2021/12/31 07:51:18;;;;;;;353.20;261.10;;;;;;;24.63;44.73;101755.84;5023213;28;20026;-54
2021/12/31 07:53:47;;;;;;;357.50;261.10;;;;;;;24.69;45.15;101782.22;5021927;28;21147;-43
2021/12/31 07:56:18;;;;;;;358.40;260.52;;;;;;;24.69;44.88;101785.72;5023725;28;20034;-43
2021/12/31 07:58:48;;;;;;;343.00;253.02;;;;;;;24.70;45.05;101779.66;5023598;28;20427;-49
2021/12/31 08:01:17;;;;;;;345.52;254.27;;;;;;;24.73;44.88;101774.50;5023530;28;20088;-56
2021/12/31 08:03:49;;;;;;;334.20;250.73;;;;;;;24.72;45.19;101772.72;5023202;28;20387;-46
2021/12/31 08:06:18;;;;;;;352.63;251.68;;;;;;;24.78;45.27;101773.72;5023088;28;20031;-44
2021/12/31 08:08:46;;;;;;;346.98;253.40;;;;;;;24.70;45.17;101784.91;5023625;28;20037;-44
2021/12/31 08:11:14;;;;;;;336.02;245.90;;;;;;;24.75;45.13;101781.50;5023166;28;20029;-46
2021/12/31 08:13:43;;;;;;;348.77;247.57;;;;;;;24.75;45.01;101785.00;5023696;28;20076;-44
2021/12/31 08:16:12;;;;;;;334.85;243.40;;;;;;;24.76;45.22;101778.03;5023449;28;20040;-44
2021/12/31 08:18:40;;;;;;;339.67;246.25;;;;;;;24.79;44.99;101796.47;5023420;28;20037;-44
2021/12/31 08:21:09;;;;;;;347.73;245.30;;;;;;;24.75;45.15;101789.38;5023358;28;20295;-48
2021/12/31 08:23:37;;;;;;;325.00;237.57;;;;;;;24.74;45.41;101796.34;5022744;28;20041;-47
2021/12/31 08:26:05;;;;;;;320.48;236.30;;;;;;;24.75;45.03;101785.00;5021904;28;20030;-50
2021/12/31 08:28:34;;;;;;;314.95;230.35;;;;;;;24.76;44.95;101793.78;5022055;28;20037;-53
2021/12/31 08:31:02;;;;;;;306.02;225.45;;;;;;;24.74;45.05;101798.97;5023134;28;20036;-47
2021/12/31 08:33:31;;;;;;;311.65;219.65;;;;;;;24.69;45.18;101795.34;5023428;28;20112;-44
2021/12/31 08:35:59;;;;;;;292.42;208.90;;;;;;;24.76;44.70;101797.28;5022344;28;20072;-44
2021/12/31 08:38:28;;;;;;;295.80;209.82;;;;;;;24.79;44.90;101809.59;5023257;28;20032;-50
2021/12/31 08:40:57;;;;;;;292.23;207.55;;;;;;;24.75;44.59;101806.00;5023117;28;20041;-44
2021/12/31 08:43:26;;;;;;;292.67;206.18;;;;;;;24.77;44.92;101809.53;5005087;28;20061;-44
2021/12/31 08:45:55;;;;;;;288.58;203.35;;;;;;;24.77;44.95;101806.06;5021686;28;20033;-43
2021/12/31 08:48:23;;;;;;;287.90;202.70;;;;;;;24.81;44.75;101821.03;5023174;28;20087;-44
2021/12/31 08:50:52;;;;;;;280.23;205.65;;;;;;;24.79;44.54;101820.97;5013893;28;20148;-44
2021/12/31 08:53:21;;;;;;;293.52;206.27;;;;;;;24.79;44.91;101833.22;5024326;28;20155;-44
2021/12/31 08:55:48;;;;;;;301.08;211.77;;;;;;;24.81;44.85;101835.00;5026196;28;20390;-44
2021/12/31 08:58:15;;;;;;;300.45;209.52;;;;;;;24.78;44.64;101832.31;5026864;28;20061;-47
2021/12/31 09:00:44;;;;;;;293.00;205.27;;;;;;;24.80;44.79;101838.50;5026572;28;20041;-44
2021/12/31 09:03:13;;;;;;;294.42;210.75;;;;;;;24.80;44.56;101848.13;5025268;28;20045;-44
2021/12/31 09:05:41;;;;;;;311.23;214.18;;;;;;;24.76;44.90;101844.50;5026805;28;20037;-50
2021/12/31 09:08:10;;;;;;;313.08;224.02;;;;;;;24.80;45.05;101850.75;5026353;28;20033;-44
2021/12/31 09:10:38;;;;;;;306.38;221.35;;;;;;;24.82;45.00;101852.53;5006766;28;20030;-44
2021/12/31 09:13:07;;;;;;;312.88;224.02;;;;;;;24.82;44.64;101852.53;5007260;28;20030;-44
2021/12/31 09:15:36;;;;;;;303.77;224.10;;;;;;;24.79;45.00;101867.34;5005475;28;20037;-47
2021/12/31 09:18:05;;;;;;;318.60;220.13;;;;;;;24.84;44.67;101868.31;5006967;28;20133;-44
2021/12/31 09:20:33;;;;;;;319.90;228.07;;;;;;;24.80;44.81;101869.09;5006730;28;20030;-44
2021/12/31 09:23:02;;;;;;;325.98;227.25;;;;;;;24.85;44.92;101870.97;5005141;28;20033;-46
2021/12/31 09:25:31;;;;;;;316.98;230.00;;;;;;;24.90;44.95;101871.09;5006179;28;20430;-46
2021/12/31 09:28:00;;;;;;;314.27;230.48;;;;;;;24.88;44.97;101876.31;5006582;28;20062;-45
2021/12/31 09:30:29;;;;;;;316.27;227.80;;;;;;;24.80;44.74;101876.97;5006844;28;20025;-51
2021/12/31 09:32:57;;;;;;;322.38;233.48;;;;;;;24.84;44.93;101895.44;5006594;28;20091;-44
2021/12/31 09:35:26;;;;;;;324.75;236.23;;;;;;;24.88;44.63;101894.69;5006955;28;20033;-44
2021/12/31 09:37:55;;;;;;;337.52;239.35;;;;;;;24.84;45.19;101899.78;5005129;28;20029;-47
2021/12/31 09:40:24;;;;;;;340.05;241.48;;;;;;;24.93;44.76;101901.75;5006576;28;20030;-43
2021/12/31 09:43:13;;;;;;;336.58;243.15;;;;;;;24.96;44.77;101905.38;5006024;28;20045;-51
2021/12/31 09:45:47;;;;;;;331.15;239.43;;;;;;;24.93;44.74;101905.28;5005875;28;20129;-46
2021/12/31 09:48:19;;;;;;;335.08;242.02;;;;;;;24.87;44.86;101900.78;5006158;28;20038;-43
2021/12/31 09:50:50;;;;;;;340.50;241.77;;;;;;;24.95;44.68;101905.31;5005926;28;20033;-43
2021/12/31 09:53:20;;;;;;;342.42;247.43;;;;;;;24.97;45.07;101911.47;5006146;28;20778;-48
2021/12/31 09:55:51;;;;;;;339.75;250.60;;;;;;;25.05;44.78;101923.06;5006109;28;20037;-44
2021/12/31 09:58:24;;;;;;;339.67;247.05;;;;;;;24.96;44.92;101922.84;5005931;28;20026;-44
2021/12/31 10:00:57;;;;;;;346.00;245.35;;;;;;;25.01;44.58;101929.97;5005818;28;20132;-54
2021/12/31 10:03:28;;;;;;;346.75;249.50;;;;;;;24.98;44.96;101943.03;5020790;28;20045;-44
2021/12/31 10:05:58;;;;;;;355.70;253.70;;;;;;;24.94;44.77;101937.66;5024405;28;20044;-50
2021/12/31 10:08:30;;;;;;;337.77;249.70;;;;;;;24.96;44.85;101946.47;5010534;28;20042;-48
2021/12/31 10:11:09;;;;;;;360.80;255.63;;;;;;;24.96;44.73;101960.50;5005720;28;20613;-46
2021/12/31 10:13:39;;;;;;;350.17;253.80;;;;;;;25.03;44.59;101962.41;5005737;28;20065;-43
2021/12/31 10:16:21;;;;;;;353.08;257.50;;;;;;;25.02;44.74;101957.13;5005696;28;20034;-48
2021/12/31 10:18:49;;;;;;;347.50;253.75;;;;;;;25.01;44.70;101961.47;5005447;28;20056;-47
2021/12/31 10:21:20;;;;;;;367.77;260.33;;;;;;;25.01;44.74;101956.22;5005177;28;20030;-52
2021/12/31 10:23:49;;;;;;;367.98;263.13;;;;;;;24.95;45.00;101953.47;5003822;28;20034;-43
2021/12/31 10:26:18;;;;;;;370.20;265.98;;;;;;;24.98;45.02;101960.50;5005228;28;20029;-49
2021/12/31 10:29:06;;;;;;;372.75;267.77;;;;;;;25.01;44.98;101963.22;5005401;28;20034;-44
2021/12/31 10:31:43;;;;;;;372.85;268.40;;;;;;;25.07;44.89;101965.97;5003881;28;20069;-44
2021/12/31 10:34:32;;;;;;;363.17;265.10;;;;;;;25.05;45.16;101964.16;5018413;28;20025;-43
2021/12/31 10:37:24;;;;;;;363.40;265.33;;;;;;;25.05;44.97;101961.53;5025023;28;20368;-45
2021/12/31 10:40:13;;;;;;;360.27;265.85;;;;;;;25.08;45.00;101974.75;5024990;28;20044;-44
2021/12/31 10:42:43;;;;;;;374.50;266.55;;;;;;;25.02;45.21;101972.88;5024687;28;20064;-45
2021/12/31 10:45:13;;;;;;;354.02;262.27;;;;;;;25.13;44.95;101981.00;5023373;28;20029;-51
2021/12/31 10:47:42;;;;;;;364.10;260.38;;;;;;;25.07;45.13;101994.84;5016173;28;20450;-46
2021/12/31 10:50:13;;;;;;;353.55;256.10;;;;;;;25.14;44.58;101980.16;5003652;28;20093;-48
2021/12/31 10:52:58;;;;;;;360.42;261.30;;;;;;;25.06;44.64;101973.81;5004586;28;20399;-50
2021/12/31 10:55:30;;;;;;;352.35;249.13;;;;;;;25.20;44.64;101982.91;5004953;28;20137;-51
2021/12/31 10:58:01;;;;;;;350.70;251.60;;;;;;;25.12;44.55;101995.84;5005042;28;20054;-42
2021/12/31 11:00:35;;;;;;;337.38;250.15;;;;;;;25.03;45.16;101996.53;5004999;28;20494;-46
2021/12/31 11:03:04;;;;;;;345.77;249.10;;;;;;;25.12;44.80;101995.00;5004812;28;20058;-43
2021/12/31 11:05:34;;;;;;;344.80;251.02;;;;;;;25.12;44.85;102002.88;5004782;28;20048;-52
2021/12/31 11:08:04;;;;;;;339.50;250.23;;;;;;;25.17;44.59;101998.59;5015220;28;20045;-49